createdAt,value
2018-07-04T06:12:10.363Z,10.63
2018-07-04T06:14:50.191Z,9.33
2018-07-04T06:17:29.789Z,9.03
2018-07-04T06:20:11.558Z,9.85
2018-07-04T06:22:51.766Z,9.05
2018-07-04T06:25:31.621Z,8.70
2018-07-04T06:28:11.734Z,9.25
2018-07-04T06:30:51.659Z,9.10
2018-07-04T06:33:31.634Z,9.13
2018-07-04T06:36:12.059Z,9.53
2018-07-04T06:38:40.256Z,8.60
2018-07-04T06:41:07.634Z,9.35
2018-07-04T06:43:35.452Z,9.25
2018-07-04T06:46:02.876Z,8.53
2018-07-04T06:48:30.248Z,8.33
2018-07-04T06:50:58.404Z,8.50
2018-07-04T06:53:26.936Z,9.33
2018-07-04T06:55:54.354Z,9.60
2018-07-04T06:58:21.707Z,9.28
2018-07-04T07:00:49.745Z,9.40
2018-07-04T07:03:29.658Z,9.63
2018-07-04T07:06:09.608Z,9.15
2018-07-04T07:08:49.426Z,8.28
2018-07-04T07:11:38.555Z,9.20
2018-07-04T07:18:00.521Z,9.15
2018-07-04T07:20:40.557Z,9.30
2018-07-04T07:23:20.324Z,9.63
2018-07-04T07:26:00.649Z,9.20
2018-07-04T07:28:40.589Z,8.43
2018-07-04T07:31:20.392Z,8.75
2018-07-04T07:34:13.015Z,8.05
2018-07-04T07:36:53.784Z,8.20
2018-07-04T07:39:33.643Z,7.80
2018-07-04T07:42:13.554Z,6.95
2018-07-04T07:44:53.672Z,6.03
2018-07-04T07:47:33.636Z,4.53
2018-07-04T07:50:13.261Z,5.08
2018-07-04T07:52:53.023Z,5.28
2018-07-04T07:55:33.187Z,5.75
2018-07-04T07:58:12.839Z,5.42
2018-07-04T08:00:52.506Z,5.35
2018-07-04T08:03:32.548Z,5.15
2018-07-04T08:09:02.931Z,4.70
2018-07-04T08:11:42.815Z,5.30
2018-07-04T08:14:22.483Z,5.40
2018-07-04T08:17:02.915Z,5.60
2018-07-04T08:19:43.230Z,5.58
2018-07-04T08:25:35.316Z,5.15
2018-07-04T08:28:14.969Z,4.40
2018-07-04T08:31:01.420Z,5.10
2018-07-04T08:33:43.368Z,4.90
2018-07-04T08:36:24.811Z,5.33
2018-07-04T08:39:05.730Z,5.97
2018-07-04T08:41:45.494Z,5.83
2018-07-04T08:44:25.201Z,4.85
2018-07-04T08:47:05.922Z,4.80
2018-07-04T08:49:45.659Z,5.28
2018-07-04T08:52:27.813Z,5.97
2018-07-04T08:55:07.629Z,5.40
2018-07-04T08:57:48.650Z,4.95
2018-07-04T09:00:28.972Z,4.75
2018-07-04T09:03:08.949Z,5.10
2018-07-04T09:05:50.138Z,5.17
2018-07-04T09:08:30.023Z,5.20
2018-07-04T09:11:09.843Z,4.85
2018-07-04T09:13:49.869Z,5.35
2018-07-04T09:16:29.836Z,4.45
2018-07-04T09:19:10.557Z,4.03
2018-07-04T09:21:50.269Z,4.87
2018-07-04T09:24:30.059Z,4.72
2018-07-04T09:27:09.826Z,4.60
2018-07-04T09:29:49.815Z,5.08
2018-07-04T09:32:29.552Z,4.65
2018-07-04T09:35:10.460Z,4.97
2018-07-04T09:37:50.087Z,4.53
2018-07-04T09:40:29.913Z,4.28
2018-07-04T09:43:12.826Z,4.25
2018-07-04T09:45:52.672Z,4.62
2018-07-04T09:48:32.555Z,4.30
2018-07-04T09:51:12.351Z,4.72
2018-07-04T09:53:55.066Z,4.92
2018-07-04T09:56:34.834Z,5.03
2018-07-04T09:59:14.580Z,5.33
2018-07-04T10:01:55.439Z,4.67
2018-07-04T10:04:35.181Z,5.40
2018-07-04T10:07:15.704Z,4.70
2018-07-04T10:09:55.556Z,4.50
2018-07-04T10:12:36.676Z,4.85
2018-07-04T10:15:17.280Z,4.20
2018-07-04T10:17:57.884Z,4.58
2018-07-04T10:20:37.630Z,4.30
2018-07-04T10:23:17.431Z,4.17
2018-07-04T10:25:57.217Z,3.75
2018-07-04T10:28:37.010Z,4.30
2018-07-04T10:31:17.493Z,4.80
2018-07-04T10:33:57.137Z,4.85
2018-07-04T10:36:37.011Z,4.72
2018-07-04T10:39:16.753Z,5.00
2018-07-04T10:41:56.601Z,4.90
2018-07-04T10:44:37.574Z,4.15
2018-07-04T10:47:18.556Z,4.55
2018-07-04T10:49:58.311Z,4.60
2018-07-04T10:52:39.224Z,4.65
2018-07-04T10:55:18.974Z,4.28
2018-07-04T10:57:53.682Z,3.85
2018-07-04T11:00:33.387Z,3.75
2018-07-04T11:03:13.985Z,4.67
2018-07-04T11:05:54.535Z,4.55
2018-07-04T11:08:34.260Z,4.10
2018-07-04T11:11:14.053Z,4.00
2018-07-04T11:13:53.926Z,3.98
2018-07-04T11:16:33.799Z,4.00
2018-07-04T11:19:13.883Z,3.87
2018-07-04T11:21:54.294Z,4.05
2018-07-04T11:24:34.110Z,3.72
2018-07-04T11:27:13.908Z,3.80
2018-07-04T11:29:53.584Z,4.10
2018-07-04T11:32:33.743Z,3.55
2018-07-04T11:35:13.889Z,4.10
2018-07-04T11:37:53.546Z,3.40
2018-07-04T11:40:33.216Z,3.90
2018-07-04T11:43:13.940Z,3.75
2018-07-04T11:45:55.949Z,3.52
2018-07-04T11:48:23.711Z,3.40
2018-07-04T11:50:52.742Z,3.20
2018-07-04T11:53:20.133Z,3.77
2018-07-04T11:55:47.576Z,3.05
2018-07-04T11:58:15.865Z,3.00
2018-07-04T12:00:44.012Z,3.62
2018-07-04T12:03:21.937Z,3.75
2018-07-04T12:06:02.724Z,3.50
2018-07-04T12:08:30.120Z,3.65
2018-07-04T12:10:58.706Z,3.27
2018-07-04T12:13:27.018Z,3.90
2018-07-04T12:15:54.392Z,3.40
2018-07-04T12:18:21.769Z,3.33
2018-07-04T12:20:49.130Z,3.22
2018-07-04T12:23:16.608Z,3.90
2018-07-04T12:25:45.026Z,3.22
2018-07-04T12:28:12.500Z,4.45
2018-07-04T12:30:39.958Z,4.53
2018-07-04T12:33:07.385Z,4.70
2018-07-04T12:35:34.745Z,3.77
2018-07-04T12:38:02.178Z,3.42
2018-07-04T12:40:29.667Z,4.15
2018-07-04T12:42:57.462Z,4.20
2018-07-04T12:45:24.908Z,4.72
2018-07-04T12:47:52.468Z,4.85
2018-07-04T12:50:26.746Z,3.60
2018-07-04T12:52:55.325Z,3.87
2018-07-04T12:55:37.356Z,3.75
2018-07-04T12:58:19.079Z,3.35
2018-07-04T13:01:01.509Z,4.00
2018-07-04T13:03:41.287Z,4.87
2018-07-04T13:06:21.278Z,4.85
2018-07-04T13:09:01.107Z,5.28
2018-07-04T13:11:40.716Z,4.83
2018-07-04T13:14:20.517Z,4.55
2018-07-04T13:17:00.455Z,3.50
2018-07-04T13:19:41.124Z,3.55
2018-07-04T13:22:21.632Z,4.62
2018-07-04T13:25:02.019Z,4.00
2018-07-04T13:27:43.217Z,4.53
2018-07-04T13:30:23.070Z,3.85
2018-07-04T13:33:02.901Z,3.85
2018-07-04T13:35:36.755Z,3.55
2018-07-04T13:38:17.596Z,3.20
2018-07-04T13:40:57.699Z,3.12
2018-07-04T13:43:38.987Z,3.70
2018-07-04T13:46:21.684Z,3.70
2018-07-04T13:49:02.293Z,3.80
2018-07-04T13:51:42.406Z,4.08
2018-07-04T13:54:25.411Z,4.50
2018-07-04T13:57:06.092Z,5.60
2018-07-04T13:59:46.766Z,7.00
2018-07-04T14:02:27.344Z,7.80
2018-07-04T14:05:08.676Z,9.83
2018-07-04T14:07:48.373Z,11.63
2018-07-04T14:10:34.309Z,15.90
2018-07-04T14:13:13.985Z,21.07
2018-07-04T14:15:54.457Z,27.93
2018-07-04T14:18:36.724Z,16.95
2018-07-04T14:21:18.259Z,11.80
2018-07-04T14:23:58.091Z,9.18
2018-07-04T14:26:37.928Z,9.60
2018-07-04T14:29:18.512Z,5.80
2018-07-04T14:31:58.350Z,4.75
2018-07-04T14:34:39.061Z,4.20
2018-07-04T14:37:21.277Z,3.85
2018-07-04T14:40:02.058Z,3.90
2018-07-04T14:42:42.015Z,3.62
2018-07-04T14:45:22.190Z,3.62
2018-07-04T14:48:01.930Z,3.45
2018-07-04T14:50:42.098Z,3.77
2018-07-04T14:53:23.098Z,3.65
2018-07-04T14:56:04.296Z,3.65
2018-07-04T14:58:43.995Z,3.37
2018-07-04T15:01:23.785Z,3.67
2018-07-04T15:04:03.612Z,3.87
2018-07-04T15:06:43.601Z,3.45
2018-07-04T15:09:23.513Z,3.47
2018-07-04T15:12:03.507Z,4.03
2018-07-04T15:14:45.075Z,3.60
2018-07-04T15:17:24.989Z,3.50
2018-07-04T15:20:05.892Z,3.50
2018-07-04T15:22:45.766Z,3.40
2018-07-04T15:25:25.534Z,3.90
2018-07-04T15:28:05.373Z,4.10
2018-07-04T15:30:45.187Z,3.62
2018-07-04T15:33:26.144Z,4.55
2018-07-04T15:36:06.818Z,4.60
2018-07-04T15:38:46.863Z,4.47
2018-07-04T15:41:26.743Z,4.08
2018-07-04T15:44:06.585Z,4.35
2018-07-04T15:46:46.300Z,4.33
2018-07-04T15:49:26.843Z,4.65
2018-07-04T15:52:06.558Z,5.00
2018-07-04T15:54:47.475Z,4.72
2018-07-04T15:57:27.243Z,4.33
2018-07-04T16:00:07.065Z,4.50
2018-07-04T16:02:46.912Z,4.60
2018-07-04T16:05:26.933Z,4.90
2018-07-04T16:08:06.604Z,4.55
2018-07-04T16:10:46.903Z,5.00
2018-07-04T16:13:27.348Z,5.10
2018-07-04T16:16:07.510Z,5.03
2018-07-04T16:18:48.723Z,5.85
2018-07-04T16:21:28.552Z,6.30
2018-07-04T16:24:08.239Z,6.55
2018-07-04T16:26:48.675Z,7.10
2018-07-04T16:29:23.943Z,6.65
2018-07-04T16:32:04.576Z,7.03
2018-07-04T16:34:44.427Z,7.65
2018-07-04T16:37:25.032Z,7.95
2018-07-04T16:40:04.682Z,8.60
2018-07-04T16:42:45.373Z,8.30
2018-07-04T16:45:25.426Z,8.85
2018-07-04T16:48:05.301Z,7.72
2018-07-04T16:50:45.751Z,7.50
2018-07-04T16:53:26.757Z,7.80
2018-07-04T16:56:06.795Z,7.35
2018-07-04T16:58:47.569Z,6.10
2018-07-04T17:01:27.598Z,6.00
2018-07-04T17:04:07.394Z,5.87
2018-07-04T17:06:53.213Z,5.37
2018-07-04T17:09:33.111Z,4.50
2018-07-04T17:12:12.910Z,5.05
2018-07-04T17:14:52.723Z,4.65
2018-07-04T17:17:32.741Z,5.00
2018-07-04T17:20:12.454Z,4.60
2018-07-04T17:22:52.787Z,4.58
2018-07-04T17:25:37.042Z,4.30
2018-07-04T17:28:17.183Z,4.65
2018-07-04T17:31:01.013Z,4.60
2018-07-04T17:33:40.752Z,5.15
2018-07-04T17:36:20.554Z,4.20
2018-07-04T17:39:00.261Z,4.47
2018-07-04T17:41:40.005Z,4.28
2018-07-04T17:44:20.747Z,4.40
2018-07-04T17:47:01.496Z,4.75
2018-07-04T17:49:41.796Z,4.35
2018-07-04T17:52:21.977Z,4.47
2018-07-04T17:55:01.956Z,4.55
2018-07-04T17:57:41.842Z,4.67
2018-07-04T18:00:21.929Z,4.45
2018-07-04T18:03:03.029Z,4.92
2018-07-04T18:05:42.835Z,5.10
2018-07-04T18:08:22.705Z,4.22
2018-07-04T18:11:02.549Z,4.72
2018-07-04T18:13:42.916Z,4.80
2018-07-04T18:16:22.916Z,5.05
2018-07-04T18:19:02.934Z,4.80
2018-07-04T18:21:42.798Z,5.65
2018-07-04T18:24:23.377Z,5.28
2018-07-04T18:27:03.117Z,5.50
2018-07-04T18:29:43.978Z,5.65
2018-07-04T18:32:23.889Z,5.58
2018-07-04T18:35:03.583Z,5.33
2018-07-04T18:37:43.394Z,4.95
2018-07-04T18:40:23.099Z,4.78
2018-07-04T18:43:05.286Z,4.83
2018-07-04T18:45:45.160Z,4.25
2018-07-04T18:48:24.895Z,3.72
2018-07-04T18:51:04.600Z,3.80
2018-07-04T18:53:44.286Z,3.92
2018-07-04T18:56:26.231Z,3.50
2018-07-04T18:59:06.035Z,3.42
2018-07-04T19:01:45.913Z,3.60
2018-07-04T19:04:25.825Z,3.87
2018-07-04T19:07:05.944Z,3.25
2018-07-04T19:09:46.787Z,3.37
2018-07-04T19:12:26.854Z,3.05
2018-07-04T19:15:06.628Z,3.20
2018-07-04T19:17:46.594Z,3.62
2018-07-04T19:20:26.349Z,3.20
2018-07-04T19:23:06.122Z,3.42
2018-07-04T19:25:45.910Z,3.17
2018-07-04T19:28:25.669Z,3.40
2018-07-04T19:31:06.766Z,3.50
2018-07-04T19:33:46.494Z,3.70
2018-07-04T19:36:26.343Z,3.62
2018-07-04T19:39:06.783Z,3.20
2018-07-04T19:41:46.652Z,3.30
2018-07-04T19:44:26.443Z,3.12
2018-07-04T19:47:06.089Z,3.00
2018-07-04T19:49:45.843Z,3.47
2018-07-04T19:52:25.805Z,3.30
2018-07-04T19:55:05.504Z,3.10
2018-07-04T19:57:45.261Z,2.85
2018-07-04T20:00:27.392Z,3.20
2018-07-04T20:03:08.920Z,3.00
2018-07-04T20:05:48.781Z,3.12
2018-07-04T20:08:28.656Z,3.20
2018-07-04T20:11:08.376Z,3.27
2018-07-04T20:13:48.076Z,2.55
2018-07-04T20:16:28.811Z,2.80
2018-07-04T20:19:08.542Z,3.45
2018-07-04T20:21:48.399Z,3.10
2018-07-04T20:24:28.129Z,3.33
2018-07-04T20:27:07.923Z,2.83
2018-07-04T20:29:47.739Z,3.37
2018-07-04T20:32:27.345Z,3.30
2018-07-04T20:35:07.015Z,3.30
2018-07-04T20:37:46.842Z,2.87
2018-07-04T20:40:26.553Z,2.67
2018-07-04T20:43:06.520Z,2.67
2018-07-04T20:45:46.314Z,3.20
2018-07-04T20:48:26.058Z,3.12
2018-07-04T20:51:06.598Z,3.12
2018-07-04T20:53:46.339Z,3.10
2018-07-04T20:56:26.030Z,3.60
2018-07-04T20:59:05.579Z,3.10
2018-07-04T21:01:45.457Z,3.15
2018-07-04T21:04:25.198Z,2.90
2018-07-04T21:07:04.993Z,2.67
2018-07-04T21:09:44.716Z,3.22
2018-07-04T21:12:24.624Z,2.95
2018-07-04T21:15:04.510Z,3.10
2018-07-04T21:17:44.212Z,3.17
2018-07-04T21:20:24.047Z,3.37
2018-07-04T21:23:03.839Z,3.67
2018-07-04T21:25:43.639Z,3.98
2018-07-04T21:28:24.146Z,3.25
2018-07-04T21:31:03.806Z,4.08
2018-07-04T21:33:43.448Z,4.40
2018-07-04T21:36:23.276Z,3.58
2018-07-04T21:39:03.208Z,3.30
2018-07-04T21:41:42.978Z,3.55
2018-07-04T21:44:22.685Z,3.42
2018-07-04T21:47:02.517Z,3.58
2018-07-04T21:49:42.249Z,3.40
2018-07-04T21:52:22.061Z,3.35
2018-07-04T21:55:01.660Z,3.12
2018-07-04T21:57:41.409Z,3.60
2018-07-04T22:00:22.398Z,3.72
2018-07-04T22:03:02.353Z,3.60
2018-07-04T22:05:42.463Z,3.27
2018-07-04T22:08:23.026Z,3.55
2018-07-04T22:11:02.929Z,3.50
2018-07-04T22:13:42.737Z,3.55
2018-07-04T22:16:22.588Z,3.15
2018-07-04T22:19:02.302Z,3.20
2018-07-04T22:21:42.082Z,3.27
2018-07-04T22:24:21.791Z,3.08
2018-07-04T22:27:01.485Z,3.15
2018-07-04T22:29:41.277Z,3.75
2018-07-04T22:32:20.946Z,3.58
2018-07-04T22:35:00.589Z,3.15
2018-07-04T22:37:40.267Z,3.70
2018-07-04T22:40:20.000Z,3.17
2018-07-04T22:42:59.809Z,4.03
2018-07-04T22:45:39.714Z,3.60
2018-07-04T22:48:19.198Z,3.85
2018-07-04T22:50:58.936Z,3.40
2018-07-04T22:53:38.568Z,3.35
2018-07-04T22:56:18.454Z,3.30
2018-07-04T22:58:58.328Z,3.12
2018-07-04T23:01:37.973Z,3.20
2018-07-04T23:04:17.647Z,3.55
2018-07-04T23:06:57.461Z,3.27
2018-07-04T23:09:37.065Z,3.25
2018-07-04T23:12:16.683Z,3.20
2018-07-04T23:14:56.336Z,3.37
2018-07-04T23:17:36.140Z,3.75
2018-07-04T23:20:16.103Z,3.10
2018-07-04T23:22:55.934Z,2.92
2018-07-04T23:25:35.694Z,3.33
2018-07-04T23:28:15.437Z,3.00
2018-07-04T23:30:55.414Z,2.90
2018-07-04T23:33:35.209Z,3.10
2018-07-04T23:36:15.022Z,2.98
2018-07-04T23:38:54.811Z,3.25
2018-07-04T23:41:34.512Z,3.62
2018-07-04T23:44:14.174Z,2.98
2018-07-04T23:46:53.757Z,3.80
2018-07-04T23:49:33.410Z,3.33
2018-07-04T23:52:13.257Z,3.00
2018-07-04T23:54:53.067Z,3.47
2018-07-04T23:57:32.745Z,3.15
